Time;durP1;ratioP1;P1;durP2;ratioP2;P2;SDS_P1;SDS_P2;PMS_P1;PMS_P2;Temp;Humidity;BMP_temperature;BMP_pressure;BME280_temperature;BME280_humidity;BME280_pressure;Samples;Min_cycle;Max_cycle;Signal;HPM_P1;HPM_P2
2022/03/23 00:00:43;;;;;;;20.55;11.77;;;7.10;92.10;;;;;;5056170;28;20079;-77
2022/03/23 00:03:10;;;;;;;22.23;12.20;;;7.10;92.20;;;;;;5055418;28;20027;-76
2022/03/23 00:05:41;;;;;;;23.48;12.70;;;7.00;92.20;;;;;;5056433;28;20060;-76
2022/03/23 00:08:07;;;;;;;24.25;12.32;;;7.00;92.20;;;;;;5055282;28;20020;-74
2022/03/23 00:10:34;;;;;;;21.70;12.07;;;6.90;92.30;;;;;;5073290;28;20028;-74
2022/03/23 00:13:00;;;;;;;21.55;11.85;;;6.80;92.90;;;;;;5072989;28;20031;-74
2022/03/23 00:15:27;;;;;;;19.13;11.02;;;6.70;93.30;;;;;;5072662;28;20013;-74
2022/03/23 00:17:53;;;;;;;21.42;11.82;;;6.70;93.50;;;;;;5055248;28;20017;-75
2022/03/23 00:20:19;;;;;;;21.20;11.73;;;6.70;93.90;;;;;;5072472;28;20154;-75
2022/03/23 00:22:45;;;;;;;22.45;11.80;;;6.60;93.90;;;;;;5055013;28;20114;-74
2022/03/23 00:25:11;;;;;;;23.38;13.13;;;6.60;94.20;;;;;;5053562;28;20020;-74
2022/03/23 00:27:37;;;;;;;22.27;11.60;;;6.60;93.90;;;;;;5054738;28;20017;-79
2022/03/23 00:30:04;;;;;;;22.77;11.47;;;6.50;94.50;;;;;;5055229;28;20024;-75
2022/03/23 00:32:30;;;;;;;22.70;11.27;;;6.50;94.50;;;;;;5055879;28;20024;-75
2022/03/23 00:34:55;;;;;;;23.38;11.95;;;6.50;94.10;;;;;;5054134;28;20052;-74
2022/03/23 00:37:21;;;;;;;20.20;11.07;;;6.30;94.60;;;;;;5072669;28;20323;-75
2022/03/23 00:39:47;;;;;;;20.30;11.80;;;6.20;94.90;;;;;;5055367;28;20024;-75
2022/03/23 00:42:12;;;;;;;19.85;10.85;;;6.20;95.60;;;;;;5072727;28;20457;-74
2022/03/23 00:44:38;;;;;;;23.27;11.67;;;6.20;95.50;;;;;;5071933;28;20064;-76
2022/03/23 00:47:04;;;;;;;21.77;11.88;;;6.20;95.10;;;;;;5054691;28;20078;-75
2022/03/23 00:49:29;;;;;;;20.87;11.33;;;6.20;94.70;;;;;;5073316;28;20024;-75
2022/03/23 00:51:56;;;;;;;22.70;11.37;;;6.10;94.90;;;;;;5071787;28;20028;-75
2022/03/23 00:54:25;;;;;;;21.90;11.50;;;6.10;95.30;;;;;;5071511;28;20017;-76
2022/03/23 00:56:51;;;;;;;23.57;12.13;;;6.00;95.40;;;;;;5073380;28;20020;-76
2022/03/23 00:59:19;;;;;;;21.27;11.93;;;6.00;95.80;;;;;;5071779;28;20028;-75
2022/03/23 01:01:45;;;;;;;26.77;12.67;;;6.00;95.80;;;;;;5055216;28;20035;-76
2022/03/23 01:04:13;;;;;;;21.87;12.07;;;5.90;95.70;;;;;;5054896;28;20449;-76
2022/03/23 01:06:39;;;;;;;25.87;11.83;;;5.90;95.70;;;;;;5055242;28;20074;-76
2022/03/23 01:09:05;;;;;;;22.20;12.50;;;6.10;95.70;;;;;;5072826;28;20096;-78
2022/03/23 01:11:31;;;;;;;22.93;12.70;;;6.00;95.50;;;;;;5055138;28;20534;-76
2022/03/23 01:13:56;;;;;;;24.50;12.03;;;5.80;95.90;;;;;;5055399;28;20028;-76
2022/03/23 01:16:22;;;;;;;23.27;12.57;;;5.80;96.80;;;;;;5054820;28;20020;-76
2022/03/23 01:18:48;;;;;;;24.60;12.00;;;5.80;96.90;;;;;;5051499;28;20049;-76
2022/03/23 01:21:14;;;;;;;22.03;12.63;;;5.80;96.70;;;;;;5051226;28;20031;-76
2022/03/23 01:23:40;;;;;;;24.83;12.23;;;5.80;96.80;;;;;;5051858;28;20116;-76
2022/03/23 01:26:05;;;;;;;24.87;12.37;;;5.80;96.80;;;;;;5051480;28;20086;-77
2022/03/23 01:28:31;;;;;;;25.83;13.10;;;5.80;96.80;;;;;;5068473;28;20454;-76
2022/03/23 01:30:57;;;;;;;22.33;11.70;;;5.70;96.80;;;;;;5053012;28;20024;-76
2022/03/23 01:33:22;;;;;;;23.33;12.53;;;5.70;96.80;;;;;;5067913;28;20564;-76
2022/03/23 01:35:48;;;;;;;24.30;12.13;;;5.70;96.80;;;;;;5069524;28;20434;-76
2022/03/23 01:38:14;;;;;;;21.73;12.17;;;5.60;96.90;;;;;;5056520;28;20021;-76
2022/03/23 01:40:40;;;;;;;22.97;12.20;;;5.60;97.10;;;;;;5056493;28;20029;-77
2022/03/23 01:43:06;;;;;;;21.10;12.17;;;5.50;97.40;;;;;;5056633;28;20131;-92
2022/03/23 01:45:31;;;;;;;22.97;11.80;;;5.40;97.80;;;;;;5072393;28;20028;-76
2022/03/23 01:47:57;;;;;;;23.97;12.07;;;5.30;97.70;;;;;;5055662;28;20068;-75
2022/03/23 01:50:23;;;;;;;21.67;11.80;;;5.40;97.60;;;;;;5071757;28;20017;-76
2022/03/23 01:52:49;;;;;;;19.67;12.03;;;5.40;97.50;;;;;;5056591;28;20036;-76
2022/03/23 01:55:15;;;;;;;22.17;12.50;;;5.20;97.80;;;;;;5054797;28;20021;-76
2022/03/23 01:57:44;;;;;;;21.90;11.93;;;5.20;98.00;;;;;;5055441;28;20017;-75
2022/03/23 02:00:11;;;;;;;20.33;11.70;;;5.10;98.30;;;;;;5055930;28;20032;-76
2022/03/23 02:02:40;;;;;;;23.07;12.13;;;5.10;98.60;;;;;;5056227;28;20082;-75
2022/03/23 02:05:06;;;;;;;22.00;11.27;;;5.10;98.90;;;;;;5054375;28;20025;-75
2022/03/23 02:07:32;;;;;;;20.87;11.73;;;5.00;99.10;;;;;;5056190;28;20060;-76
2022/03/23 02:09:59;;;;;;;21.50;11.97;;;5.00;99.10;;;;;;5054784;28;20398;-76
2022/03/23 02:12:30;;;;;;;20.47;11.27;;;5.00;99.00;;;;;;5054353;28;20029;-75
2022/03/23 02:15:00;;;;;;;21.70;11.27;;;5.00;99.00;;;;;;5054858;28;20033;-75
2022/03/23 02:17:26;;;;;;;24.47;11.73;;;5.20;98.60;;;;;;5054461;28;20017;-76
2022/03/23 02:19:52;;;;;;;21.90;11.80;;;5.20;98.60;;;;;;5054412;28;20141;-76
2022/03/23 02:22:18;;;;;;;21.70;11.67;;;5.20;98.60;;;;;;5055452;28;20035;-76
2022/03/23 02:24:46;;;;;;;20.60;11.30;;;5.20;98.50;;;;;;5054793;28;20029;-75
2022/03/23 02:27:13;;;;;;;23.93;11.30;;;5.10;98.30;;;;;;5054190;28;20032;-76
2022/03/23 02:29:39;;;;;;;21.17;11.40;;;5.10;98.60;;;;;;5055770;28;20032;-75
2022/03/23 02:32:05;;;;;;;21.60;10.53;;;5.10;98.70;;;;;;5055713;28;20021;-76
2022/03/23 02:34:31;;;;;;;22.87;11.83;;;5.20;98.60;;;;;;5055281;28;20094;-76
2022/03/23 02:36:58;;;;;;;21.40;11.47;;;5.20;98.50;;;;;;5054417;28;20017;-76
2022/03/23 02:39:25;;;;;;;19.67;10.90;;;5.20;98.40;;;;;;5053880;28;20025;-76
2022/03/23 02:41:53;;;;;;;21.67;11.57;;;5.10;98.40;;;;;;5055554;28;20029;-75
2022/03/23 02:44:20;;;;;;;24.73;11.13;;;5.00;98.40;;;;;;5055231;28;20347;-76
2022/03/23 02:46:46;;;;;;;25.20;11.90;;;5.00;98.70;;;;;;5055023;28;20036;-75
2022/03/23 02:49:15;;;;;;;24.40;11.50;;;5.00;98.70;;;;;;5054456;28;20450;-76
2022/03/23 02:51:41;;;;;;;21.27;11.60;;;5.00;98.60;;;;;;5054161;28;20032;-75
2022/03/23 03:02:47;;;;;;;25.23;11.77;;;4.80;98.90;;;;;;5054840;28;20541;-74
2022/03/23 03:05:14;;;;;;;21.53;11.30;;;4.70;99.30;;;;;;5054485;28;20103;-74
2022/03/23 03:10:25;;;;;;;23.00;11.67;;;4.70;99.70;;;;;;5054463;28;20067;-74
2022/03/23 03:12:52;;;;;;;20.97;11.50;;;4.70;99.50;;;;;;5053504;28;20079;-74
2022/03/23 03:15:19;;;;;;;25.23;11.50;;;4.60;99.50;;;;;;5052795;28;20140;-74
2022/03/23 03:17:46;;;;;;;21.97;11.73;;;4.50;99.80;;;;;;5053540;28;20070;-74
2022/03/23 03:20:14;;;;;;;25.23;12.30;;;4.40;99.90;;;;;;5052746;28;20049;-77
2022/03/23 03:22:40;;;;;;;22.23;11.00;;;4.40;99.90;;;;;;5053394;28;20052;-74
2022/03/23 03:25:08;;;;;;;22.73;11.43;;;4.50;99.90;;;;;;5053411;28;20407;-74
2022/03/23 03:27:37;;;;;;;18.67;11.27;;;4.40;99.90;;;;;;5053825;28;20029;-74
2022/03/23 03:30:04;;;;;;;20.50;11.20;;;4.30;99.90;;;;;;5053273;28;20382;-74
2022/03/23 03:35:52;;;;;;;20.73;11.10;;;4.30;99.90;;;;;;5054223;28;20100;-74
2022/03/23 03:38:18;;;;;;;21.50;11.57;;;4.30;99.90;;;;;;5052804;28;20516;-76
2022/03/23 03:40:45;;;;;;;19.73;10.30;;;4.30;99.90;;;;;;5053336;28;20082;-76
2022/03/23 03:43:12;;;;;;;25.83;12.37;;;4.30;99.90;;;;;;5054417;28;20028;-76
2022/03/23 03:45:40;;;;;;;22.33;10.73;;;4.30;99.90;;;;;;5052746;28;20028;-75
2022/03/23 03:48:06;;;;;;;22.10;11.83;;;4.20;99.90;;;;;;5053308;28;20021;-74
2022/03/23 03:50:31;;;;;;;20.63;11.73;;;4.20;99.90;;;;;;5052507;28;20074;-74
2022/03/23 03:52:57;;;;;;;22.07;11.43;;;4.20;99.90;;;;;;5069618;28;20377;-74
2022/03/23 03:55:23;;;;;;;21.40;10.93;;;4.20;99.90;;;;;;5052472;28;20067;-74
2022/03/23 03:57:48;;;;;;;22.83;10.43;;;4.10;99.90;;;;;;5053847;28;20021;-74
2022/03/23 04:00:15;;;;;;;19.80;11.33;;;4.10;99.90;;;;;;5052102;28;20021;-89
2022/03/23 04:02:40;;;;;;;20.80;10.60;;;4.10;99.90;;;;;;5052835;28;20377;-74
2022/03/23 04:05:08;;;;;;;23.47;11.93;;;4.10;99.90;;;;;;5053496;28;20064;-74
2022/03/23 04:07:33;;;;;;;19.57;10.67;;;4.10;99.90;;;;;;5052229;28;20116;-74
2022/03/23 04:10:03;;;;;;;23.23;11.40;;;4.00;99.90;;;;;;5054024;28;20421;-74
2022/03/23 04:12:29;;;;;;;21.27;11.17;;;4.00;99.90;;;;;;5052088;28;20075;-74
2022/03/23 04:14:55;;;;;;;21.87;11.23;;;3.90;99.90;;;;;;5052502;28;20420;-74
2022/03/23 04:17:21;;;;;;;20.70;10.80;;;3.90;99.90;;;;;;5051856;28;20028;-75
2022/03/23 04:19:47;;;;;;;24.23;11.33;;;3.90;99.90;;;;;;5052389;28;20045;-74
2022/03/23 04:22:13;;;;;;;23.53;11.40;;;3.90;99.90;;;;;;5052230;28;20079;-74
2022/03/23 04:24:38;;;;;;;22.23;11.67;;;4.00;99.90;;;;;;5053051;28;20037;-74
2022/03/23 04:27:05;;;;;;;20.93;10.80;;;3.90;99.90;;;;;;5051797;28;20457;-75
2022/03/23 04:29:31;;;;;;;24.37;11.10;;;4.00;99.90;;;;;;5053012;28;20061;-75
2022/03/23 04:31:56;;;;;;;19.17;10.53;;;4.00;99.90;;;;;;5053370;28;20044;-75
2022/03/23 04:34:22;;;;;;;23.33;10.73;;;4.00;99.90;;;;;;5052970;28;20027;-74
2022/03/23 04:36:48;;;;;;;22.90;10.17;;;3.90;99.90;;;;;;5051974;28;20029;-73
2022/03/23 04:39:13;;;;;;;20.60;11.03;;;3.90;99.90;;;;;;5051512;28;20489;-75
2022/03/23 04:41:39;;;;;;;20.33;11.17;;;4.00;99.90;;;;;;5051452;28;20047;-74
2022/03/23 04:44:05;;;;;;;23.80;11.30;;;3.80;99.90;;;;;;5051825;28;20505;-74
2022/03/23 04:46:30;;;;;;;17.17;10.20;;;3.80;99.90;;;;;;5051493;28;20036;-74
2022/03/23 04:48:56;;;;;;;22.17;10.57;;;3.90;99.90;;;;;;5068496;28;20025;-74
2022/03/23 04:51:22;;;;;;;20.67;10.87;;;3.80;99.90;;;;;;5052618;28;20461;-74
2022/03/23 04:53:47;;;;;;;23.07;11.23;;;3.80;99.90;;;;;;5051915;28;20017;-76
2022/03/23 04:56:13;;;;;;;22.90;11.80;;;3.80;99.90;;;;;;5052030;28;20028;-76
2022/03/23 04:58:41;;;;;;;20.33;11.93;;;3.80;99.90;;;;;;5067981;28;20025;-75
2022/03/23 05:01:06;;;;;;;22.40;11.10;;;3.80;99.90;;;;;;5052841;28;20017;-74
2022/03/23 05:03:32;;;;;;;22.53;11.20;;;3.70;99.90;;;;;;5050894;28;20461;-75
2022/03/23 05:05:57;;;;;;;21.77;11.13;;;3.60;99.90;;;;;;5052300;28;20021;-74
2022/03/23 05:08:23;;;;;;;20.97;11.43;;;3.60;99.90;;;;;;5050924;28;20025;-75
2022/03/23 05:10:49;;;;;;;21.83;10.90;;;3.60;99.90;;;;;;5050192;28;20106;-74
2022/03/23 05:13:14;;;;;;;21.77;10.73;;;3.60;99.90;;;;;;5048662;28;20382;-74
2022/03/23 05:15:40;;;;;;;20.13;11.07;;;3.50;99.90;;;;;;5050497;28;20032;-76
2022/03/23 05:18:06;;;;;;;24.77;11.00;;;3.50;99.90;;;;;;5052782;28;20469;-75
2022/03/23 05:20:32;;;;;;;23.87;11.07;;;3.50;99.90;;;;;;5053840;28;20492;-76
2022/03/23 05:22:57;;;;;;;22.37;11.20;;;3.40;99.90;;;;;;5054565;28;20060;-75
2022/03/23 05:25:23;;;;;;;22.00;11.07;;;3.40;99.90;;;;;;5054194;28;20035;-76
2022/03/23 05:27:49;;;;;;;24.07;11.87;;;3.30;99.90;;;;;;5054811;28;20056;-75
2022/03/23 05:30:15;;;;;;;20.97;9.77;;;3.20;99.90;;;;;;5054844;28;20099;-75
2022/03/23 05:32:42;;;;;;;23.50;11.47;;;3.20;99.90;;;;;;5054102;28;20025;-75
2022/03/23 05:35:08;;;;;;;21.30;11.70;;;3.20;99.90;;;;;;5054712;28;20098;-75
2022/03/23 05:37:34;;;;;;;23.33;11.43;;;3.30;99.90;;;;;;5053934;28;20025;-75
2022/03/23 05:40:03;;;;;;;25.43;10.60;;;3.30;99.90;;;;;;5072579;28;20032;-75
2022/03/23 05:42:28;;;;;;;22.03;10.70;;;3.30;99.90;;;;;;5054318;28;20036;-76
2022/03/23 05:44:54;;;;;;;20.20;10.70;;;3.40;99.90;;;;;;5054923;28;20376;-75
2022/03/23 05:47:21;;;;;;;23.13;10.83;;;3.40;99.90;;;;;;5072933;28;20028;-75
2022/03/23 05:49:46;;;;;;;22.73;11.50;;;3.40;99.90;;;;;;5072653;28;20048;-75
2022/03/23 05:52:12;;;;;;;22.03;11.10;;;3.40;99.90;;;;;;5072282;28;20496;-75
2022/03/23 05:54:38;;;;;;;21.83;10.93;;;3.30;99.90;;;;;;5072023;28;20112;-74
2022/03/23 05:57:04;;;;;;;20.13;11.17;;;3.20;99.90;;;;;;5054538;28;20104;-74
2022/03/23 05:59:30;;;;;;;21.20;10.70;;;3.30;99.90;;;;;;5054120;28;20360;-75
2022/03/23 06:01:58;;;;;;;20.53;10.57;;;3.40;99.90;;;;;;5054491;28;20078;-75
2022/03/23 06:04:23;;;;;;;22.40;11.60;;;3.50;99.90;;;;;;5054067;28;20032;-75
2022/03/23 06:06:49;;;;;;;25.10;11.30;;;3.50;99.90;;;;;;5054559;28;20016;-75
2022/03/23 06:09:14;;;;;;;21.53;11.57;;;3.30;99.90;;;;;;5072260;28;20039;-75
2022/03/23 06:11:40;;;;;;;19.53;10.80;;;3.30;99.90;;;;;;5054010;28;20120;-75
2022/03/23 06:14:06;;;;;;;20.67;10.53;;;3.30;99.90;;;;;;5054340;28;20024;-74
2022/03/23 06:16:31;;;;;;;23.27;11.20;;;3.30;99.90;;;;;;5053912;28;20445;-75
2022/03/23 06:18:59;;;;;;;20.30;10.60;;;3.30;99.90;;;;;;5071977;28;20427;-75
2022/03/23 06:21:24;;;;;;;22.57;10.70;;;3.40;99.90;;;;;;5072037;28;20469;-76
2022/03/23 06:23:51;;;;;;;20.37;10.67;;;3.40;99.90;;;;;;5057962;28;20029;-75
2022/03/23 06:26:16;;;;;;;22.37;11.57;;;3.60;99.90;;;;;;5075914;28;20117;-75
2022/03/23 06:28:43;;;;;;;19.23;10.57;;;3.50;99.90;;;;;;5057475;28;20293;-75
2022/03/23 06:31:09;;;;;;;20.37;10.97;;;3.60;99.90;;;;;;5075863;28;20033;-75
2022/03/23 06:33:34;;;;;;;20.63;10.43;;;3.60;99.90;;;;;;5057679;28;20066;-76
2022/03/23 06:36:01;;;;;;;18.90;10.30;;;3.70;99.90;;;;;;5075728;28;20024;-76
2022/03/23 06:38:27;;;;;;;20.73;10.27;;;3.80;99.90;;;;;;5074954;28;20027;-76
2022/03/23 06:40:53;;;;;;;20.80;10.70;;;3.90;99.90;;;;;;5075255;28;20435;-75
2022/03/23 06:43:18;;;;;;;21.27;11.23;;;4.00;99.90;;;;;;5058002;28;20035;-75
2022/03/23 06:45:44;;;;;;;23.90;10.80;;;4.00;99.90;;;;;;5075281;28;20024;-76
2022/03/23 06:48:10;;;;;;;21.60;11.40;;;4.20;99.90;;;;;;5057476;28;20465;-76
2022/03/23 06:50:36;;;;;;;22.03;11.60;;;4.20;99.90;;;;;;5057318;28;20120;-76
2022/03/23 06:53:02;;;;;;;20.03;10.20;;;4.30;99.90;;;;;;5057492;28;20161;-76
2022/03/23 06:55:27;;;;;;;18.03;10.10;;;4.30;99.90;;;;;;5057262;28;20517;-76
2022/03/23 06:57:54;;;;;;;18.23;10.83;;;4.40;99.90;;;;;;5075523;28;20028;-76
2022/03/23 07:00:19;;;;;;;24.07;10.93;;;4.40;99.90;;;;;;5057551;28;20334;-76
2022/03/23 07:02:47;;;;;;;18.63;10.50;;;4.50;99.90;;;;;;5056640;28;20035;-75
2022/03/23 07:05:14;;;;;;;23.60;11.17;;;4.50;99.90;;;;;;5075212;28;20031;-74
2022/03/23 07:09:31;;;;;;;21.97;11.00;;;4.60;99.90;;;;;;5056708;28;20028;-75
2022/03/23 07:10:30;;;;;;;30.67;12.30;;;4.60;99.90;;;;;;5074227;28;20481;-75
2022/03/23 07:12:56;;;;;;;22.60;10.63;;;4.70;99.90;;;;;;5056909;28;20029;-75
2022/03/23 07:15:23;;;;;;;24.23;11.07;;;4.80;99.90;;;;;;5057875;28;20129;-75
2022/03/23 07:17:49;;;;;;;25.20;11.37;;;4.80;99.90;;;;;;5078531;28;20028;-77
2022/03/23 07:20:15;;;;;;;22.77;12.40;;;4.90;99.90;;;;;;5057185;28;20098;-77
2022/03/23 07:22:41;;;;;;;20.47;11.43;;;5.00;99.90;;;;;;5056779;28;20575;-76
2022/03/23 07:25:07;;;;;;;25.70;12.37;;;5.10;99.90;;;;;;5056925;28;20062;-75
2022/03/23 07:27:32;;;;;;;26.60;12.10;;;5.20;99.90;;;;;;5056509;28;20025;-76
2022/03/23 07:29:58;;;;;;;27.03;12.70;;;5.30;99.90;;;;;;5056910;28;20079;-76
2022/03/23 07:32:24;;;;;;;21.07;11.87;;;5.40;99.90;;;;;;5056348;28;20028;-76
2022/03/23 07:34:50;;;;;;;22.13;11.60;;;5.60;99.90;;;;;;5054495;28;20020;-76
2022/03/23 07:37:15;;;;;;;23.93;11.33;;;5.60;99.90;;;;;;5069788;28;20362;-78
2022/03/23 07:39:42;;;;;;;21.87;11.60;;;5.70;99.90;;;;;;5085588;28;20097;-76
2022/03/23 07:42:08;;;;;;;23.53;12.87;;;5.80;99.90;;;;;;5054633;28;20029;-78
2022/03/23 07:44:33;;;;;;;23.77;12.10;;;5.90;99.90;;;;;;5058051;28;20097;-78
2022/03/23 07:46:59;;;;;;;25.27;12.00;;;5.90;99.90;;;;;;5064640;28;20020;-76
2022/03/23 07:49:25;;;;;;;24.67;12.53;;;6.00;99.90;;;;;;5084687;28;20031;-76
2022/03/23 07:51:51;;;;;;;25.10;11.77;;;6.10;99.90;;;;;;5045575;28;20116;-77
2022/03/23 07:54:17;;;;;;;24.77;11.97;;;6.10;99.90;;;;;;5081426;28;20031;-76
2022/03/23 07:56:43;;;;;;;23.87;12.37;;;6.20;99.90;;;;;;5084289;28;20521;-77
2022/03/23 07:59:09;;;;;;;25.23;12.77;;;6.30;99.90;;;;;;5063528;28;20032;-77
2022/03/23 08:01:35;;;;;;;23.20;12.07;;;6.40;99.90;;;;;;5077288;28;20073;-79
2022/03/23 08:04:01;;;;;;;31.00;14.63;;;6.50;99.90;;;;;;5086114;28;20070;-78
2022/03/23 08:06:28;;;;;;;29.27;12.67;;;6.60;99.90;;;;;;5056812;28;20054;-75
2022/03/23 08:08:55;;;;;;;22.97;10.77;;;6.70;99.30;;;;;;5083284;28;20025;-75
2022/03/23 08:11:21;;;;;;;25.53;11.87;;;6.90;98.60;;;;;;5082413;28;20024;-77
2022/03/23 08:13:47;;;;;;;21.27;11.30;;;7.10;98.00;;;;;;5056440;28;20429;-77
2022/03/23 08:16:12;;;;;;;22.77;10.80;;;7.10;97.50;;;;;;5069166;28;20067;-77
2022/03/23 08:18:38;;;;;;;20.90;10.60;;;7.20;96.80;;;;;;5075555;28;20048;-75
2022/03/23 08:21:04;;;;;;;22.00;10.97;;;7.30;96.70;;;;;;5062176;28;20801;-75
2022/03/23 08:23:30;;;;;;;21.97;10.50;;;7.30;96.90;;;;;;5065203;28;20167;-79
2022/03/23 08:25:56;;;;;;;19.50;10.20;;;7.40;96.90;;;;;;5056748;28;20027;-81
2022/03/23 08:28:22;;;;;;;26.97;11.13;;;7.40;96.80;;;;;;5071295;28;20024;-76
2022/03/23 08:30:47;;;;;;;22.20;11.00;;;7.40;97.40;;;;;;5064802;28;20020;-75
2022/03/23 08:33:13;;;;;;;21.63;10.53;;;7.50;97.70;;;;;;5081547;28;20048;-76
2022/03/23 08:35:39;;;;;;;19.77;9.50;;;7.60;96.90;;;;;;5065065;28;20028;-76
2022/03/23 08:38:06;;;;;;;20.65;9.07;;;7.60;96.20;;;;;;5054418;28;20024;-77
2022/03/23 08:40:32;;;;;;;23.30;11.40;;;7.80;96.00;;;;;;5073155;28;20466;-83
2022/03/23 08:42:58;;;;;;;19.95;10.90;;;7.90;95.30;;;;;;5051373;28;20033;-77
2022/03/23 08:45:25;;;;;;;20.90;9.82;;;7.90;95.30;;;;;;5059148;28;20085;-77
2022/03/23 08:47:51;;;;;;;21.05;10.15;;;8.00;94.60;;;;;;5053824;28;20078;-76
2022/03/23 08:50:18;;;;;;;26.00;10.60;;;8.10;93.70;;;;;;5056672;28;20055;-75
2022/03/23 08:52:44;;;;;;;28.70;10.73;;;8.10;93.80;;;;;;5051841;28;20036;-77
2022/03/23 08:55:14;;;;;;;20.27;10.10;;;8.30;94.00;;;;;;5054242;28;20427;-81
2022/03/23 08:57:41;;;;;;;20.00;10.30;;;8.60;92.90;;;;;;5054099;28;20396;-78
2022/03/23 09:00:08;;;;;;;21.45;10.30;;;8.60;92.30;;;;;;5055370;28;20020;-79
2022/03/23 09:02:34;;;;;;;23.00;10.95;;;8.80;91.20;;;;;;5057030;28;20058;-76
2022/03/23 09:04:59;;;;;;;24.42;11.77;;;8.80;91.00;;;;;;5077337;28;20465;-80
2022/03/23 09:07:25;;;;;;;26.15;10.77;;;8.90;90.40;;;;;;5052890;28;20066;-77
2022/03/23 09:09:51;;;;;;;19.23;10.35;;;8.90;90.70;;;;;;5053274;28;20021;-77
2022/03/23 09:12:16;;;;;;;23.05;11.05;;;8.90;89.60;;;;;;5054411;28;20485;-76
2022/03/23 09:14:42;;;;;;;24.75;11.85;;;8.90;89.20;;;;;;5054463;28;20086;-76
2022/03/23 09:17:08;;;;;;;24.30;11.55;;;8.90;89.60;;;;;;5055971;28;20454;-75
2022/03/23 09:19:37;;;;;;;26.40;11.13;;;9.00;87.10;;;;;;5055425;28;20048;-76
2022/03/23 09:22:03;;;;;;;23.15;11.45;;;9.10;88.30;;;;;;5083404;28;20414;-76
2022/03/23 09:24:29;;;;;;;24.60;11.15;;;9.10;88.30;;;;;;5078343;28;20032;-74
2022/03/23 09:26:55;;;;;;;20.55;10.55;;;9.20;85.40;;;;;;5070300;28;20031;-76
2022/03/23 09:29:21;;;;;;;23.88;10.98;;;9.20;85.00;;;;;;5056006;28;20381;-76
2022/03/23 09:31:47;;;;;;;25.38;11.45;;;9.20;85.60;;;;;;5054839;28;20056;-77
2022/03/23 09:34:13;;;;;;;20.23;11.00;;;9.30;84.40;;;;;;5075474;28;20020;-75
2022/03/23 09:39:23;;;;;;;25.85;11.05;;;9.50;81.00;;;;;;5069432;28;20028;-74
2022/03/23 09:41:49;;;;;;;30.92;13.88;;;9.50;78.00;;;;;;5073585;28;20037;-75
2022/03/23 09:44:16;;;;;;;27.15;12.18;;;9.50;79.00;;;;;;5072683;28;20432;-77
2022/03/23 09:46:43;;;;;;;24.73;11.65;;;9.50;76.00;;;;;;5059135;28;20019;-77
2022/03/23 09:49:09;;;;;;;23.30;10.68;;;9.60;73.40;;;;;;5068301;28;20036;-77
2022/03/23 09:51:38;;;;;;;25.88;11.38;;;9.70;72.00;;;;;;5055111;28;20032;-80
2022/03/23 09:54:05;;;;;;;21.80;11.25;;;9.60;72.10;;;;;;5074759;28;20032;-75
2022/03/23 09:56:31;;;;;;;17.25;10.25;;;9.60;71.80;;;;;;5056404;28;20024;-76
2022/03/23 09:58:56;;;;;;;23.02;10.77;;;9.60;67.70;;;;;;5059920;28;20040;-75
2022/03/23 10:01:25;;;;;;;17.92;10.15;;;9.60;68.00;;;;;;5057945;28;20025;-76
2022/03/23 10:04:12;;;;;;;21.55;9.95;;;9.80;68.00;;;;;;5066724;28;20037;-75
2022/03/23 10:06:58;;;;;;;21.23;10.50;;;9.80;69.80;;;;;;5070864;28;20039;-75
2022/03/23 10:09:46;;;;;;;24.15;10.50;;;9.90;71.60;;;;;;5062129;28;20058;-76
2022/03/23 10:12:49;;;;;;;17.30;10.07;;;10.10;69.80;;;;;;5055575;28;20037;-75
2022/03/23 10:15:39;;;;;;;19.98;10.35;;;10.30;66.60;;;;;;5065888;28;20024;-76
2022/03/23 10:18:42;;;;;;;22.35;11.40;;;10.20;66.30;;;;;;5084439;28;20024;-76
2022/03/23 10:21:08;;;;;;;20.38;10.52;;;10.40;67.60;;;;;;5085554;28;20036;-76
2022/03/23 10:23:33;;;;;;;25.05;11.38;;;10.50;66.90;;;;;;5069203;28;20557;-83
2022/03/23 10:26:14;;;;;;;20.15;10.60;;;10.50;67.20;;;;;;5075063;28;20028;-76
2022/03/23 10:28:39;;;;;;;21.20;10.65;;;10.50;66.90;;;;;;5057153;28;20036;-76
2022/03/23 10:31:24;;;;;;;20.75;10.43;;;10.60;66.30;;;;;;5060218;28;20085;-76
2022/03/23 10:34:08;;;;;;;20.13;10.82;;;10.50;65.40;;;;;;5052393;28;20079;-76
2022/03/23 10:36:51;;;;;;;18.90;10.73;;;10.50;64.90;;;;;;5057137;28;20490;-82
2022/03/23 10:39:18;;;;;;;20.45;9.85;;;10.60;65.30;;;;;;5067345;28;20019;-79
2022/03/23 10:41:58;;;;;;;21.60;10.70;;;10.60;65.20;;;;;;5062479;28;20044;-77
2022/03/23 10:44:24;;;;;;;22.05;11.07;;;10.60;65.00;;;;;;5062005;28;20095;-77
2022/03/23 10:46:49;;;;;;;21.25;10.38;;;10.60;64.90;;;;;;5054075;28;20115;-76
2022/03/23 10:49:15;;;;;;;24.20;12.27;;;10.60;64.60;;;;;;5071018;28;20030;-77
2022/03/23 10:51:42;;;;;;;23.23;12.10;;;10.80;64.10;;;;;;5054434;28;20127;-75
2022/03/23 10:54:19;;;;;;;20.98;11.40;;;10.90;64.90;;;;;;5055908;28;20033;-78
2022/03/23 10:56:45;;;;;;;19.67;10.65;;;10.90;64.50;;;;;;5056138;28;20047;-77
2022/03/23 10:59:28;;;;;;;20.08;10.52;;;10.90;64.40;;;;;;5058878;28;20012;-79
2022/03/23 11:02:03;;;;;;;21.38;10.35;;;10.80;64.60;;;;;;5069583;28;20020;-76
2022/03/23 11:04:42;;;;;;;22.83;10.90;;;10.90;64.80;;;;;;5056563;28;20039;-76
2022/03/23 11:07:35;;;;;;;20.48;10.88;;;11.10;63.80;;;;;;5054637;28;20343;-76
2022/03/23 11:15:50;;;;;;;19.63;10.00;;;11.50;61.40;;;;;;5077820;28;20089;-81
2022/03/23 11:18:17;;;;;;;20.23;10.00;;;11.60;60.80;;;;;;5036409;28;20382;-77
2022/03/23 11:20:53;;;;;;;21.70;9.75;;;11.50;61.90;;;;;;5053796;28;20033;-78
2022/03/23 11:23:25;;;;;;;18.08;10.07;;;11.60;61.30;;;;;;5061666;28;20474;-77
2022/03/23 11:25:53;;;;;;;18.40;10.18;;;11.80;59.60;;;;;;5055651;28;20033;-78
2022/03/23 11:28:19;;;;;;;20.40;9.77;;;11.80;59.90;;;;;;5073405;28;20101;-75
2022/03/23 11:30:46;;;;;;;20.40;10.23;;;12.10;59.70;;;;;;5073622;28;20780;-84
2022/03/23 11:33:15;;;;;;;18.65;10.27;;;12.10;59.10;;;;;;5056184;28;20028;-75
2022/03/23 11:35:46;;;;;;;18.00;9.85;;;12.10;58.80;;;;;;5055310;28;20496;-76
2022/03/23 11:38:12;;;;;;;15.18;8.05;;;12.10;60.00;;;;;;5074280;28;20019;-74
2022/03/23 11:40:40;;;;;;;19.77;10.20;;;12.30;62.00;;;;;;5080341;28;20073;-79
2022/03/23 11:43:06;;;;;;;22.77;10.98;;;12.30;61.00;;;;;;5037692;28;20462;-75
2022/03/23 11:45:32;;;;;;;18.05;9.88;;;12.40;61.50;;;;;;5061176;28;20034;-75
2022/03/23 11:48:05;;;;;;;19.65;10.70;;;12.50;61.40;;;;;;5064331;28;20100;-74
2022/03/23 11:50:47;;;;;;;16.45;9.95;;;12.50;61.40;;;;;;5064734;28;20036;-78
2022/03/23 11:53:53;;;;;;;33.17;17.00;;;12.60;59.50;;;;;;5070419;28;20050;-77
2022/03/23 11:56:24;;;;;;;25.20;12.48;;;12.60;59.70;;;;;;5087078;28;20035;-74
2022/03/23 11:58:50;;;;;;;46.73;22.00;;;12.80;59.10;;;;;;5076078;28;20050;-77
2022/03/23 12:01:16;;;;;;;32.30;18.13;;;13.20;59.30;;;;;;5071088;28;20257;-73
2022/03/23 12:03:41;;;;;;;24.17;13.30;;;13.20;59.00;;;;;;5063137;28;20032;-75
2022/03/23 12:06:19;;;;;;;22.27;11.07;;;13.30;58.70;;;;;;5076003;28;20457;-75
2022/03/23 12:08:57;;;;;;;19.42;10.60;;;13.40;57.90;;;;;;5066376;28;20040;-76
2022/03/23 12:11:49;;;;;;;21.00;10.57;;;13.60;56.20;;;;;;5055679;28;20077;-76
2022/03/23 12:14:38;;;;;;;17.70;10.68;;;13.80;54.80;;;;;;5073647;28;20028;-75
2022/03/23 12:17:14;;;;;;;18.73;10.88;;;14.00;55.40;;;;;;5073342;28;20085;-76
2022/03/23 12:20:04;;;;;;;18.63;10.13;;;14.00;54.10;;;;;;5074652;28;20443;-81
2022/03/23 12:22:33;;;;;;;17.48;10.35;;;14.30;51.60;;;;;;5060109;28;20024;-76
2022/03/23 12:25:35;;;;;;;18.75;11.57;;;14.60;51.60;;;;;;5090726;28;20035;-77
2022/03/23 12:28:08;;;;;;;17.50;10.48;;;14.80;51.70;;;;;;5074564;28;20020;-76
2022/03/23 12:30:52;;;;;;;16.88;10.23;;;15.00;52.40;;;;;;5075685;28;20028;-75
2022/03/23 12:33:21;;;;;;;21.80;10.98;;;15.20;50.90;;;;;;5053646;28;20051;-76
2022/03/23 12:35:48;;;;;;;19.38;10.65;;;15.40;50.60;;;;;;5067784;28;20028;-76
2022/03/23 12:38:25;;;;;;;17.80;10.35;;;15.70;50.10;;;;;;5074558;28;20020;-76
2022/03/23 12:40:51;;;;;;;17.50;11.13;;;16.00;50.10;;;;;;5060997;28;20091;-76
2022/03/23 12:43:34;;;;;;;21.35;12.38;;;16.20;50.00;;;;;;5066293;28;20044;-76
2022/03/23 12:46:01;;;;;;;19.73;10.20;;;16.40;48.60;;;;;;5054831;28;20037;-76
2022/03/23 12:59:36;;;;;;;16.75;9.80;;;17.60;44.90;;;;;;5073112;28;20083;-76
2022/03/23 13:02:32;;;;;;;18.25;9.93;;;17.90;44.10;;;;;;5072454;28;20089;-77
2022/03/23 13:04:58;;;;;;;14.70;8.88;;;18.10;42.60;;;;;;5043260;28;20124;-78
2022/03/23 13:07:44;;;;;;;12.95;9.07;;;18.40;41.80;;;;;;5074751;28;20017;-78
2022/03/23 13:10:14;;;;;;;14.20;8.82;;;18.80;39.80;;;;;;5065680;28;20446;-76
2022/03/23 13:12:42;;;;;;;14.48;8.80;;;19.30;40.10;;;;;;5058851;28;20043;-77
2022/03/23 13:15:16;;;;;;;18.20;9.02;;;19.70;38.80;;;;;;5054590;28;20047;-76